createdAt,value
2019-03-21T00:02:22.271Z,3.60
2019-03-21T00:05:04.661Z,3.97
2019-03-21T00:07:46.846Z,4.40
2019-03-21T00:10:28.483Z,3.47
2019-03-21T00:13:10.927Z,3.53
2019-03-21T00:15:52.678Z,3.70
2019-03-21T00:18:34.476Z,3.83
2019-03-21T00:21:16.305Z,3.40
2019-03-21T00:23:58.533Z,3.93
2019-03-21T00:26:31.242Z,4.00
2019-03-21T00:29:40.196Z,3.37
2019-03-21T00:32:29.886Z,3.50
2019-03-21T00:35:39.094Z,3.30
2019-03-21T00:38:28.923Z,3.43
2019-03-21T00:41:18.725Z,3.30
2019-03-21T00:44:17.791Z,3.73
2019-03-21T00:47:19.833Z,3.53
2019-03-21T00:50:10.501Z,3.97
2019-03-21T00:53:00.295Z,3.73
2019-03-21T00:55:50.211Z,4.43
2019-03-21T00:58:40.063Z,4.60
2019-03-21T01:01:29.878Z,4.17
2019-03-21T01:04:00.851Z,3.70
2019-03-21T01:06:32.063Z,5.17
2019-03-21T01:09:21.861Z,5.13
2019-03-21T01:12:11.961Z,5.70
2019-03-21T01:15:21.174Z,5.53
2019-03-21T01:18:02.907Z,5.47
2019-03-21T01:20:44.564Z,5.57
2019-03-21T01:23:26.811Z,5.17
2019-03-21T01:26:09.030Z,5.43
2019-03-21T01:28:51.350Z,5.50
2019-03-21T01:31:33.283Z,5.40
2019-03-21T01:34:15.542Z,5.10
2019-03-21T01:36:57.581Z,4.90
2019-03-21T01:39:39.233Z,4.83
2019-03-21T01:42:21.587Z,4.90
2019-03-21T01:47:45.675Z,4.90
2019-03-21T01:50:27.603Z,4.57
2019-03-21T01:53:09.305Z,5.10
2019-03-21T01:55:40.290Z,5.70
2019-03-21T02:01:04.902Z,5.53
2019-03-21T02:03:46.811Z,5.03
2019-03-21T02:09:32.350Z,4.93
2019-03-21T02:14:57.117Z,4.97
2019-03-21T02:17:39.159Z,4.50
2019-03-21T02:23:04.673Z,3.97
2019-03-21T02:25:36.152Z,3.50
2019-03-21T02:28:07.212Z,3.97
2019-03-21T02:30:38.500Z,3.90
2019-03-21T02:33:30.345Z,4.10
2019-03-21T02:36:01.214Z,4.07
2019-03-21T02:38:51.018Z,3.93
2019-03-21T02:41:25.206Z,4.23
2019-03-21T02:43:54.480Z,3.40
2019-03-21T02:46:44.211Z,4.00
2019-03-21T02:49:15.110Z,3.93
2019-03-21T02:52:04.907Z,4.40
2019-03-21T02:54:54.644Z,4.57
2019-03-21T02:57:44.454Z,4.47
2019-03-21T03:00:26.122Z,3.87
2019-03-21T03:03:08.267Z,4.20
2019-03-21T03:05:50.206Z,3.80
2019-03-21T03:08:32.447Z,4.03
2019-03-21T03:11:14.240Z,3.40
2019-03-21T03:13:56.336Z,3.53
2019-03-21T03:16:38.577Z,3.20
2019-03-21T03:19:20.191Z,3.73
2019-03-21T03:22:01.880Z,3.70
2019-03-21T03:24:44.113Z,3.80
2019-03-21T03:27:26.450Z,3.70
2019-03-21T03:30:08.261Z,4.63
2019-03-21T03:32:50.363Z,4.20
2019-03-21T03:35:32.145Z,3.73
2019-03-21T03:38:14.061Z,4.27
2019-03-21T03:40:56.222Z,3.70
2019-03-21T03:43:38.521Z,4.80
2019-03-21T03:49:04.083Z,5.43
2019-03-21T03:51:45.873Z,4.57
2019-03-21T03:54:27.847Z,4.20
2019-03-21T04:00:08.503Z,4.97
2019-03-21T04:02:50.164Z,5.30
2019-03-21T04:05:32.103Z,4.90
2019-03-21T04:08:14.116Z,5.60
2019-03-21T04:10:56.298Z,4.80
2019-03-21T04:13:37.821Z,4.57
2019-03-21T04:16:19.793Z,5.07
2019-03-21T04:18:50.796Z,4.87
2019-03-21T04:21:40.464Z,4.87
2019-03-21T04:24:30.180Z,5.10
2019-03-21T04:27:20.178Z,4.53
2019-03-21T04:30:10.636Z,5.40
2019-03-21T04:33:22.517Z,4.77
2019-03-21T04:36:30.571Z,4.87
2019-03-21T04:39:39.710Z,4.40
2019-03-21T04:42:29.355Z,5.27
2019-03-21T04:45:19.617Z,5.30
2019-03-21T04:47:50.381Z,5.17
2019-03-21T04:50:40.199Z,5.13
2019-03-21T04:53:29.860Z,5.87
2019-03-21T04:56:19.667Z,5.07
2019-03-21T04:59:09.350Z,5.27
2019-03-21T05:01:59.079Z,5.43
2019-03-21T05:04:48.846Z,5.10
2019-03-21T05:07:38.502Z,5.40
2019-03-21T05:10:47.676Z,4.60
2019-03-21T05:13:37.333Z,4.90
2019-03-21T05:16:27.014Z,5.50
2019-03-21T05:19:09.634Z,4.97
2019-03-21T05:21:51.575Z,5.13
2019-03-21T05:24:33.642Z,5.37
2019-03-21T05:27:15.769Z,5.30
2019-03-21T05:29:57.473Z,5.17
2019-03-21T05:32:39.686Z,6.00
2019-03-21T05:35:21.719Z,5.40
2019-03-21T05:38:03.926Z,6.43
2019-03-21T05:40:45.747Z,6.20
2019-03-21T05:43:27.605Z,6.53
2019-03-21T05:45:58.606Z,5.67
2019-03-21T05:48:48.421Z,5.70
2019-03-21T05:51:38.205Z,6.17
2019-03-21T05:54:27.941Z,6.03
2019-03-21T05:56:59.038Z,6.00
2019-03-21T06:02:38.691Z,5.70
2019-03-21T06:05:28.627Z,5.07
2019-03-21T06:08:11.193Z,5.73
2019-03-21T06:10:53.117Z,5.70
2019-03-21T06:13:35.149Z,5.87
2019-03-21T06:16:16.945Z,5.50
2019-03-21T06:18:59.057Z,5.27
2019-03-21T06:21:40.978Z,5.90
2019-03-21T06:24:23.023Z,5.23
2019-03-21T06:27:14.005Z,5.30
2019-03-21T06:29:48.922Z,5.57
2019-03-21T06:32:31.162Z,5.37
2019-03-21T06:35:12.946Z,5.27
2019-03-21T06:40:38.407Z,5.90
2019-03-21T06:43:20.818Z,5.87
2019-03-21T06:46:03.666Z,5.57
2019-03-21T06:48:45.681Z,5.57
2019-03-21T06:51:28.154Z,5.87
2019-03-21T06:54:09.976Z,5.73
2019-03-21T06:59:35.316Z,5.20
2019-03-21T07:02:17.476Z,6.37
2019-03-21T07:04:59.553Z,5.37
2019-03-21T07:07:30.620Z,5.17
2019-03-21T07:10:20.343Z,5.50
2019-03-21T07:13:10.210Z,6.40
2019-03-21T07:15:59.940Z,6.37
2019-03-21T07:18:49.719Z,5.97
2019-03-21T07:24:54.649Z,5.83
2019-03-21T07:27:44.378Z,5.70
2019-03-21T07:30:15.619Z,6.03
2019-03-21T07:33:05.427Z,5.17
2019-03-21T07:35:55.049Z,5.87
2019-03-21T07:38:44.799Z,5.83
2019-03-21T07:41:34.475Z,5.50
2019-03-21T07:44:24.188Z,5.60
2019-03-21T07:47:13.983Z,5.33
2019-03-21T07:50:03.693Z,5.27
2019-03-21T07:52:53.417Z,6.50
2019-03-21T07:55:43.152Z,5.43
2019-03-21T07:58:32.930Z,5.70
2019-03-21T08:01:22.737Z,6.13
2019-03-21T08:04:04.456Z,4.80
2019-03-21T08:06:47.639Z,5.23
2019-03-21T08:09:29.839Z,5.37
2019-03-21T08:12:12.793Z,5.37
2019-03-21T08:14:54.727Z,5.17
2019-03-21T08:17:36.955Z,5.47
2019-03-21T08:20:18.996Z,5.20
2019-03-21T08:23:00.892Z,4.87
2019-03-21T08:28:23.438Z,4.90
2019-03-21T08:31:14.125Z,5.07
2019-03-21T08:34:03.921Z,5.47
2019-03-21T08:36:53.652Z,4.77
2019-03-21T08:39:43.420Z,5.10
2019-03-21T08:42:33.129Z,5.80
2019-03-21T08:45:42.265Z,5.03
2019-03-21T08:48:32.512Z,5.27
2019-03-21T08:51:25.683Z,5.63
2019-03-21T08:54:03.885Z,5.70
2019-03-21T08:56:37.189Z,5.43
2019-03-21T08:59:27.002Z,5.10
2019-03-21T09:01:57.937Z,4.83
2019-03-21T09:04:28.789Z,4.93
2019-03-21T09:07:18.572Z,5.00
2019-03-21T09:09:49.525Z,4.63
2019-03-21T09:12:39.330Z,5.27
2019-03-21T09:15:29.042Z,4.70
2019-03-21T09:18:13.067Z,4.73
2019-03-21T09:21:03.652Z,4.90
2019-03-21T09:23:53.373Z,4.43
2019-03-21T09:26:43.027Z,4.63
2019-03-21T09:29:32.810Z,4.60
2019-03-21T09:32:22.553Z,5.00
2019-03-21T09:35:12.587Z,4.87
2019-03-21T09:38:23.137Z,4.57
2019-03-21T09:41:12.820Z,4.60
2019-03-21T09:44:02.424Z,5.20
2019-03-21T09:46:52.337Z,4.13
2019-03-21T09:49:42.128Z,4.20
2019-03-21T09:52:31.804Z,5.10
2019-03-21T09:55:21.445Z,4.53
2019-03-21T09:58:11.126Z,4.67
2019-03-21T10:01:00.788Z,5.37
2019-03-21T10:03:50.494Z,5.43
2019-03-21T10:06:40.194Z,4.27
2019-03-21T10:09:31.990Z,4.77
2019-03-21T10:12:21.729Z,4.67
2019-03-21T10:15:11.403Z,4.53
2019-03-21T10:17:53.621Z,4.50
2019-03-21T10:20:24.411Z,4.50
2019-03-21T10:22:55.372Z,3.73
2019-03-21T10:25:45.055Z,4.60
2019-03-21T10:28:54.205Z,4.70
2019-03-21T10:31:43.973Z,3.90
2019-03-21T10:34:33.753Z,3.60
2019-03-21T10:37:23.407Z,4.03
2019-03-21T10:43:21.860Z,6.23
2019-03-21T10:46:11.625Z,4.40
2019-03-21T10:49:01.332Z,3.70
2019-03-21T10:51:55.185Z,4.10
2019-03-21T10:55:02.094Z,3.50
2019-03-21T10:57:51.973Z,3.87
2019-03-21T11:00:23.077Z,3.87
2019-03-21T11:03:12.902Z,4.30
2019-03-21T11:06:02.568Z,3.97
2019-03-21T11:08:33.738Z,3.77
2019-03-21T11:11:23.562Z,4.07
2019-03-21T11:14:13.220Z,3.67
2019-03-21T11:17:02.988Z,4.23
2019-03-21T11:19:52.699Z,3.83
2019-03-21T11:22:42.387Z,3.47
2019-03-21T11:25:32.044Z,3.87
2019-03-21T11:28:10.712Z,3.27
2019-03-21T11:31:00.490Z,3.40
2019-03-21T11:33:50.238Z,4.30
2019-03-21T11:36:59.389Z,3.23
2019-03-21T11:39:49.074Z,2.83
2019-03-21T11:42:20.022Z,3.50
2019-03-21T11:45:09.843Z,2.97
2019-03-21T11:47:42.009Z,3.33
2019-03-21T11:50:51.707Z,3.13
2019-03-21T11:53:41.621Z,2.63
2019-03-21T11:56:32.196Z,2.40
2019-03-21T11:59:21.903Z,2.87
2019-03-21T12:02:11.739Z,2.80
2019-03-21T12:05:01.971Z,2.83
2019-03-21T12:07:34.456Z,2.70
2019-03-21T12:10:24.570Z,3.20
2019-03-21T12:13:14.256Z,2.97
2019-03-21T12:15:56.754Z,2.60
2019-03-21T12:18:27.733Z,2.63
2019-03-21T12:21:18.198Z,2.40
2019-03-21T12:24:07.880Z,2.47
2019-03-21T12:27:01.498Z,3.13
2019-03-21T12:36:06.804Z,2.53
2019-03-21T12:38:58.133Z,5.10
2019-03-21T12:41:47.823Z,2.53
2019-03-21T12:44:37.641Z,3.63
2019-03-21T12:47:31.549Z,3.30
2019-03-21T12:50:38.594Z,2.73
2019-03-21T12:53:20.719Z,2.70
2019-03-21T12:56:03.045Z,2.80
2019-03-21T12:58:45.258Z,2.90
2019-03-21T13:01:27.357Z,2.67
2019-03-21T13:04:09.205Z,3.40
2019-03-21T13:06:51.208Z,3.10
2019-03-21T13:09:22.178Z,2.83
2019-03-21T13:12:11.857Z,2.97
2019-03-21T13:15:01.571Z,3.17
2019-03-21T13:17:51.281Z,3.33
2019-03-21T13:20:41.005Z,3.60
2019-03-21T13:23:30.783Z,3.50
2019-03-21T13:26:20.571Z,3.40
2019-03-21T13:28:51.465Z,3.30
2019-03-21T13:31:41.137Z,3.70
2019-03-21T13:34:31.026Z,2.90
2019-03-21T13:37:20.781Z,3.30
2019-03-21T13:40:10.748Z,3.60
2019-03-21T13:43:12.380Z,3.60
2019-03-21T13:45:54.460Z,3.50
2019-03-21T13:48:36.194Z,3.57
2019-03-21T13:51:07.086Z,4.07
2019-03-21T13:53:56.654Z,3.60
2019-03-21T13:56:46.332Z,3.80
2019-03-21T13:59:36.012Z,4.00
2019-03-21T14:02:25.677Z,5.33
2019-03-21T14:05:15.308Z,3.90
2019-03-21T14:08:04.968Z,3.67
2019-03-21T14:10:54.658Z,3.87
2019-03-21T14:13:44.371Z,3.70
2019-03-21T14:16:26.873Z,4.03
2019-03-21T14:19:08.514Z,4.37
2019-03-21T14:21:50.327Z,4.23
2019-03-21T14:27:15.366Z,3.97
2019-03-21T14:30:01.879Z,5.83
2019-03-21T14:32:41.180Z,3.70
2019-03-21T14:37:54.586Z,3.03
2019-03-21T14:40:45.056Z,3.13
2019-03-21T14:43:36.049Z,2.97
2019-03-21T14:46:07.062Z,3.30
2019-03-21T14:48:38.157Z,2.60
2019-03-21T14:51:09.129Z,2.73
2019-03-21T14:53:40.182Z,3.60
2019-03-21T14:56:29.841Z,2.53
2019-03-21T14:59:00.813Z,2.33
2019-03-21T15:01:50.965Z,3.00
2019-03-21T15:04:21.794Z,2.43
2019-03-21T15:06:52.678Z,2.47
2019-03-21T15:09:23.575Z,2.30
2019-03-21T15:12:13.354Z,2.30
2019-03-21T15:15:22.455Z,2.33
2019-03-21T15:18:04.259Z,2.87
2019-03-21T15:20:46.743Z,2.70
2019-03-21T15:23:39.939Z,2.33
2019-03-21T15:26:12.777Z,2.70
2019-03-21T15:28:54.699Z,2.60
2019-03-21T15:31:37.206Z,2.80
2019-03-21T15:34:18.979Z,2.50
2019-03-21T15:37:01.124Z,2.70
2019-03-21T15:39:42.980Z,2.40
2019-03-21T15:42:13.926Z,2.60
2019-03-21T15:45:20.454Z,2.73
2019-03-21T15:48:14.467Z,2.93
2019-03-21T15:51:05.104Z,2.60
2019-03-21T15:54:14.953Z,2.43
2019-03-21T15:57:04.641Z,2.70
2019-03-21T15:59:46.838Z,3.00
2019-03-21T16:02:28.681Z,2.53
2019-03-21T16:05:10.877Z,2.97
2019-03-21T16:07:52.993Z,3.00
2019-03-21T16:10:35.689Z,2.37
2019-03-21T16:13:08.944Z,2.20
2019-03-21T16:15:58.623Z,3.07
2019-03-21T16:18:29.563Z,2.53
2019-03-21T16:21:00.501Z,2.83
2019-03-21T16:23:50.208Z,3.00
2019-03-21T16:26:21.147Z,3.03
2019-03-21T16:29:10.883Z,3.12
2019-03-21T16:32:02.461Z,3.30
2019-03-21T16:35:31.894Z,2.90
2019-03-21T16:38:21.634Z,2.80
2019-03-21T16:41:11.272Z,3.00
2019-03-21T16:44:20.395Z,2.80
2019-03-21T16:46:51.257Z,2.63
2019-03-21T16:49:22.194Z,2.80
2019-03-21T16:52:11.964Z,2.60
2019-03-21T16:55:01.651Z,2.97
2019-03-21T16:57:51.365Z,2.83
2019-03-21T17:00:41.058Z,3.00
2019-03-21T17:03:30.819Z,2.80
2019-03-21T17:06:21.466Z,2.60
2019-03-21T17:09:11.180Z,2.57
2019-03-21T17:12:00.858Z,2.53
2019-03-21T17:14:51.217Z,2.70
2019-03-21T17:17:22.074Z,2.80
2019-03-21T17:20:04.304Z,2.80
2019-03-21T17:22:46.805Z,2.90
2019-03-21T17:25:31.168Z,2.87
2019-03-21T17:28:01.181Z,2.97
2019-03-21T17:30:50.945Z,3.40
2019-03-21T17:33:40.731Z,2.63
2019-03-21T17:36:30.419Z,2.90
2019-03-21T17:39:20.146Z,3.33
2019-03-21T17:41:51.028Z,3.43
2019-03-21T17:44:21.950Z,3.90
2019-03-21T17:46:52.920Z,5.57
2019-03-21T17:49:23.961Z,18.13
2019-03-21T17:51:54.884Z,9.67
2019-03-21T17:54:25.903Z,4.80
2019-03-21T17:56:56.907Z,3.60
2019-03-21T17:59:27.870Z,6.20
2019-03-21T18:02:17.572Z,7.60
2019-03-21T18:04:48.510Z,4.07
2019-03-21T18:07:38.184Z,3.27
2019-03-21T18:10:31.405Z,3.93
2019-03-21T18:13:21.051Z,4.27
2019-03-21T18:16:10.797Z,4.03
2019-03-21T18:19:00.605Z,4.00
2019-03-21T18:22:02.250Z,4.70
2019-03-21T18:24:53.301Z,4.00
2019-03-21T18:27:37.212Z,4.53
2019-03-21T18:30:27.297Z,4.93
2019-03-21T18:33:19.172Z,4.87
2019-03-21T18:36:28.004Z,5.30
2019-03-21T18:39:17.734Z,5.13
2019-03-21T18:42:07.477Z,4.10
2019-03-21T18:44:57.223Z,3.83
2019-03-21T18:50:56.133Z,4.77
2019-03-21T18:53:45.827Z,5.00
2019-03-21T18:56:27.620Z,6.00
2019-03-21T18:59:09.595Z,5.67
2019-03-21T19:01:58.337Z,4.73
2019-03-21T19:04:35.351Z,4.57
2019-03-21T19:07:17.799Z,5.27
2019-03-21T19:09:59.968Z,4.37
2019-03-21T19:12:41.633Z,5.07
2019-03-21T19:15:23.475Z,5.57
2019-03-21T19:20:48.181Z,6.27
2019-03-21T19:26:12.619Z,6.40
2019-03-21T19:28:43.520Z,6.13
2019-03-21T19:31:33.275Z,6.13
2019-03-21T19:34:23.064Z,6.87
2019-03-21T19:37:12.789Z,7.87
2019-03-21T19:40:02.469Z,6.70
2019-03-21T19:42:52.241Z,6.30
2019-03-21T19:45:41.974Z,5.50
2019-03-21T19:48:31.700Z,5.60
2019-03-21T19:51:21.424Z,5.00
2019-03-21T19:54:11.103Z,5.37
2019-03-21T19:56:53.196Z,4.53
2019-03-21T19:59:35.513Z,6.33
2019-03-21T20:02:06.559Z,5.17
2019-03-21T20:04:56.290Z,4.70
2019-03-21T20:07:46.075Z,4.20
2019-03-21T20:10:35.897Z,4.13
2019-03-21T20:13:25.696Z,3.87
2019-03-21T20:16:15.508Z,4.40
2019-03-21T20:19:05.190Z,4.10
2019-03-21T20:21:54.987Z,4.87
2019-03-21T20:24:25.996Z,5.87
2019-03-21T20:26:57.011Z,4.57
2019-03-21T20:29:46.697Z,4.90
2019-03-21T20:32:20.748Z,4.80
2019-03-21T20:35:27.655Z,4.17
2019-03-21T20:37:58.495Z,4.17
2019-03-21T20:40:48.186Z,4.50
2019-03-21T20:43:37.025Z,4.40
2019-03-21T20:46:25.724Z,4.50
2019-03-21T20:49:15.270Z,4.80
2019-03-21T20:51:46.349Z,4.10
2019-03-21T20:54:17.514Z,4.40
2019-03-21T20:56:48.548Z,4.40
2019-03-21T20:59:38.290Z,4.60
2019-03-21T21:02:28.129Z,4.80
2019-03-21T21:05:00.368Z,5.20
2019-03-21T21:07:31.522Z,4.70
2019-03-21T21:10:02.492Z,4.40
2019-03-21T21:12:52.281Z,4.60
2019-03-21T21:15:42.098Z,4.60
2019-03-21T21:18:13.210Z,4.83
2019-03-21T21:21:02.845Z,4.60
2019-03-21T21:23:51.746Z,4.47
2019-03-21T21:26:41.419Z,4.10
2019-03-21T21:29:12.369Z,4.77
2019-03-21T21:32:02.194Z,5.50
2019-03-21T21:34:54.429Z,6.00
2019-03-21T21:38:02.741Z,5.80
2019-03-21T21:44:01.247Z,5.93
2019-03-21T21:47:10.348Z,5.27
2019-03-21T21:50:00.112Z,6.08
2019-03-21T21:52:50.496Z,6.47
2019-03-21T21:55:40.329Z,6.20
2019-03-21T21:58:11.423Z,6.60
2019-03-21T22:01:01.104Z,6.57
2019-03-21T22:03:32.069Z,7.10
2019-03-21T22:06:21.849Z,6.67
2019-03-21T22:09:30.972Z,7.17
2019-03-21T22:12:19.830Z,6.57
2019-03-21T22:15:09.845Z,7.13
2019-03-21T22:17:59.539Z,6.87
2019-03-21T22:20:49.233Z,8.00
2019-03-21T22:23:38.951Z,7.83
2019-03-21T22:26:29.799Z,7.50
2019-03-21T22:29:31.482Z,6.63
2019-03-21T22:32:12.300Z,6.40
2019-03-21T22:35:01.999Z,5.90
2019-03-21T22:37:51.703Z,6.50
2019-03-21T22:40:41.383Z,7.00
2019-03-21T22:43:31.111Z,6.23
2019-03-21T22:46:02.025Z,8.73
2019-03-21T22:49:11.107Z,6.90
2019-03-21T22:52:00.722Z,6.07
2019-03-21T22:54:50.397Z,5.97
2019-03-21T22:57:59.553Z,6.13
2019-03-21T23:04:02.680Z,6.47
2019-03-21T23:07:10.954Z,8.10
2019-03-21T23:10:00.650Z,7.40
2019-03-21T23:12:50.348Z,6.93
2019-03-21T23:15:39.997Z,5.57
2019-03-21T23:18:10.993Z,5.73
2019-03-21T23:21:00.709Z,5.73
2019-03-21T23:23:31.691Z,5.40
2019-03-21T23:26:02.520Z,5.87
2019-03-21T23:28:33.462Z,6.10
2019-03-21T23:31:04.280Z,5.83
2019-03-21T23:33:53.952Z,5.33
2019-03-21T23:39:52.328Z,6.03
2019-03-21T23:42:42.008Z,6.03
2019-03-21T23:45:31.873Z,6.53
2019-03-21T23:48:41.036Z,6.23
2019-03-21T23:51:30.699Z,5.67
2019-03-21T23:54:20.477Z,6.30
2019-03-21T23:57:10.146Z,5.80
2019-03-21T23:59:59.850Z,5.77
